KVAD/VAD METAR and TAF weather

Enter ICAO airport designator
Station Type Date Time Source
KVAD METAR 2019/12/08 06:56 UTC NOAA

KVAD 080656Z AUTO 06007KT 10SM SCT065 11/06 A3022 RMK AO2 SLP235 T01070059 $


Station Type Date Time Source
KVAD Decoded METAR 2019/12/08 06:56 UTC NOAA

Moody Air Force Base, GA, United States (KVAD) 30-58N 083-12W 71M
Dec 08, 2019 - 01:56 AM EST / 2019.12.08 0656 UTC
Wind: from the ENE (060 degrees) at 8 MPH (7 KT):0
Visibility: 10 mile(s):0
Sky conditions: partly cloudy
Temperature: 51.3 F (10.7 C)
Dew Point: 42.6 F (5.9 C)
Relative Humidity: 72%
Pressure (altimeter): 30.22 in. Hg (1023 hPa)
ob: KVAD 080656Z AUTO 06007KT 10SM SCT065 11/06 A3022 RMK AO2 SLP235 T01070059
cycle: 7

Station Type Date Time Source
KVAD TAF 2019/12/07 17:37 UTC NOAA

TAF
AMD KVAD 071728Z 0717/0823 09012KT 9999 SCT030 BKN050 QNH3015INS
BECMG 0720/0721 07009KT 9999 SCT050 QNH3015INS
BECMG 0809/0810 04006KT 9999 OVC005 QNH3021INS
BECMG 0814/0815 06006KT 9999 FEW005 BKN020 QNH3013INS TX22/0721Z TN12/0805Z

Example: see airport list